Time;durP1;ratioP1;P1;durP2;ratioP2;P2;SDS_P1;SDS_P2;PMS_P1;PMS_P2;Temp;Humidity;BMP_temperature;BMP_pressure;BME280_temperature;BME280_humidity;BME280_pressure;Samples;Min_cycle;Max_cycle;Signal;HPM_P1;HPM_P2
2022/06/20 00:00:06;;;;;;;2.95;1.10;;;13.20;99.90;;;;;;5113202;28;20016;-68
2022/06/20 00:02:36;;;;;;;4.53;0.73;;;13.30;99.90;;;;;;5104913;28;20020;-66
2022/06/20 00:05:06;;;;;;;0.90;0.60;;;13.20;99.90;;;;;;5104750;28;20024;-69
2022/06/20 00:07:32;;;;;;;3.25;0.95;;;13.20;99.90;;;;;;5105129;28;20024;-68
2022/06/20 00:10:00;;;;;;;7.40;0.77;;;13.10;99.90;;;;;;5105155;28;20020;-68
2022/06/20 00:12:27;;;;;;;3.90;0.73;;;13.10;99.90;;;;;;5104214;28;20066;-68
2022/06/20 00:14:58;;;;;;;2.15;1.13;;;13.10;99.90;;;;;;5105122;28;20085;-71
2022/06/20 00:17:24;;;;;;;1.05;0.63;;;13.00;99.90;;;;;;5105373;28;20028;-67
2022/06/20 00:19:50;;;;;;;1.40;0.63;;;13.00;99.90;;;;;;5104598;28;20072;-68
2022/06/20 00:22:15;;;;;;;5.20;1.15;;;13.00;99.90;;;;;;5116059;28;20024;-68
2022/06/20 00:24:41;;;;;;;1.55;0.80;;;13.00;99.90;;;;;;5125123;28;20019;-68
2022/06/20 00:27:06;;;;;;;3.72;0.85;;;12.90;99.90;;;;;;5124592;28;20036;-67
2022/06/20 00:29:37;;;;;;;4.35;1.50;;;13.00;99.90;;;;;;5124631;28;20131;-67
2022/06/20 00:32:05;;;;;;;2.10;0.70;;;13.00;99.90;;;;;;5124961;28;20107;-67
2022/06/20 00:34:32;;;;;;;3.40;0.88;;;12.90;99.90;;;;;;5124686;28;20024;-68
2022/06/20 00:36:58;;;;;;;0.82;0.70;;;12.90;99.90;;;;;;5124844;28;20405;-67
2022/06/20 00:39:24;;;;;;;1.30;0.93;;;12.90;99.90;;;;;;5124779;28;20035;-68
2022/06/20 00:41:51;;;;;;;2.65;0.77;;;12.80;99.90;;;;;;5124867;28;20051;-66
2022/06/20 00:44:23;;;;;;;6.65;1.73;;;12.80;99.90;;;;;;5124721;28;20036;-68
2022/06/20 00:46:52;;;;;;;0.65;0.47;;;12.90;99.90;;;;;;5124662;28;20034;-67
2022/06/20 00:49:27;;;;;;;2.72;0.90;;;12.90;99.90;;;;;;5125137;28;20022;-67
2022/06/20 00:52:15;;;;;;;3.10;0.98;;;12.90;99.90;;;;;;5125273;28;20460;-68
2022/06/20 00:54:57;;;;;;;7.45;1.02;;;12.90;99.90;;;;;;5124660;28;20023;-68
2022/06/20 00:57:35;;;;;;;1.25;0.80;;;12.90;99.90;;;;;;5124903;28;20028;-68
2022/06/20 01:00:15;;;;;;;2.92;0.88;;;12.80;99.90;;;;;;5124464;28;20023;-68
2022/06/20 01:02:45;;;;;;;1.75;0.77;;;12.80;99.90;;;;;;5124943;28;20039;-66
2022/06/20 01:05:23;;;;;;;1.63;0.80;;;12.80;99.90;;;;;;5124599;28;20046;-68
2022/06/20 01:07:53;;;;;;;1.20;0.50;;;12.80;99.90;;;;;;5124850;28;20069;-67
2022/06/20 01:10:20;;;;;;;7.85;0.70;;;12.80;99.90;;;;;;5117120;28;20036;-67
2022/06/20 01:12:58;;;;;;;2.92;1.02;;;12.80;99.90;;;;;;5104275;28;20050;-65
2022/06/20 01:15:26;;;;;;;1.05;0.85;;;12.80;99.90;;;;;;5104290;28;20031;-66
2022/06/20 01:17:54;;;;;;;1.55;0.70;;;12.70;99.90;;;;;;5104390;28;20514;-68
2022/06/20 01:20:24;;;;;;;1.25;0.70;;;12.80;99.90;;;;;;5104220;28;20035;-68
2022/06/20 01:22:59;;;;;;;3.95;1.00;;;12.70;99.90;;;;;;5104293;28;20024;-66
2022/06/20 01:25:55;;;;;;;1.13;0.65;;;12.70;99.90;;;;;;5104553;28;20028;-68
2022/06/20 01:28:28;;;;;;;1.67;0.75;;;12.70;99.90;;;;;;5103712;28;20052;-67
2022/06/20 01:30:57;;;;;;;0.57;0.43;;;12.70;99.90;;;;;;5103673;28;20082;-69
2022/06/20 01:33:23;;;;;;;2.25;0.75;;;12.70;99.90;;;;;;5104672;28;20503;-68
2022/06/20 01:38:36;;;;;;;4.55;1.10;;;12.70;99.90;;;;;;5108004;28;20043;-67
2022/06/20 01:43:47;;;;;;;0.70;0.38;;;12.70;99.90;;;;;;5107835;28;20483;-67
2022/06/20 01:46:14;;;;;;;6.28;1.20;;;12.70;99.90;;;;;;5107484;28;20028;-67
2022/06/20 01:48:52;;;;;;;1.80;0.85;;;12.70;99.90;;;;;;5107576;28;20028;-67
2022/06/20 01:51:28;;;;;;;1.48;0.50;;;12.60;99.90;;;;;;5107565;28;20058;-67
2022/06/20 01:53:56;;;;;;;6.53;0.77;;;12.60;99.90;;;;;;5107335;28;20128;-67
2022/06/20 01:56:26;;;;;;;5.07;0.82;;;12.60;99.90;;;;;;5107416;28;20032;-67
2022/06/20 01:58:55;;;;;;;1.10;0.70;;;12.60;99.90;;;;;;5107537;28;20024;-67
2022/06/20 02:01:21;;;;;;;1.35;0.88;;;12.70;99.90;;;;;;5107268;28;20024;-67
2022/06/20 02:03:47;;;;;;;3.13;0.88;;;12.70;99.90;;;;;;5107665;28;20023;-67
2022/06/20 02:06:16;;;;;;;7.10;1.50;;;12.60;99.90;;;;;;5107321;28;20024;-67
2022/06/20 02:08:45;;;;;;;1.85;0.90;;;12.70;99.90;;;;;;5106999;28;20065;-68
2022/06/20 02:11:24;;;;;;;2.70;1.20;;;12.70;99.90;;;;;;5107342;28;20404;-66
2022/06/20 02:13:53;;;;;;;2.95;0.43;;;12.60;99.90;;;;;;5107081;28;20020;-67
2022/06/20 02:16:22;;;;;;;1.10;0.55;;;12.60;99.90;;;;;;5105594;28;20024;-68
2022/06/20 02:18:52;;;;;;;0.77;0.47;;;12.60;99.90;;;;;;5107136;28;20036;-68
2022/06/20 02:21:26;;;;;;;2.15;0.85;;;12.60;99.90;;;;;;5106904;28;20446;-68
2022/06/20 02:24:03;;;;;;;1.00;0.70;;;12.70;99.90;;;;;;5106868;28;20104;-67
2022/06/20 02:26:32;;;;;;;1.13;0.73;;;12.60;99.90;;;;;;5107218;28;20039;-69
2022/06/20 02:29:07;;;;;;;5.00;0.98;;;12.60;99.90;;;;;;5107093;28;20043;-70
2022/06/20 02:31:33;;;;;;;2.70;1.20;;;12.60;99.90;;;;;;5106258;28;20052;-68
2022/06/20 02:34:00;;;;;;;0.98;0.80;;;12.60;99.90;;;;;;5106457;28;20032;-68
2022/06/20 02:36:26;;;;;;;2.42;0.95;;;12.50;99.90;;;;;;5106614;28;20047;-67
2022/06/20 02:38:53;;;;;;;2.50;0.82;;;12.50;99.90;;;;;;5106727;28;20028;-68
2022/06/20 02:41:23;;;;;;;1.45;0.80;;;12.50;99.90;;;;;;5106491;28;20025;-68
2022/06/20 02:43:56;;;;;;;3.85;0.60;;;12.40;99.90;;;;;;5112786;28;20027;-67
2022/06/20 02:46:27;;;;;;;3.60;0.97;;;12.40;99.90;;;;;;5126649;28;20034;-67
2022/06/20 02:48:54;;;;;;;1.63;0.68;;;12.30;99.90;;;;;;5108074;28;20058;-68
2022/06/20 02:51:27;;;;;;;1.25;0.90;;;12.30;99.90;;;;;;5106346;28;20032;-68
2022/06/20 02:54:01;;;;;;;10.50;1.80;;;12.30;99.90;;;;;;5106840;28;20138;-69
2022/06/20 02:56:33;;;;;;;3.83;0.80;;;12.30;99.90;;;;;;5106631;28;20035;-68
2022/06/20 02:59:06;;;;;;;1.73;0.80;;;12.30;99.90;;;;;;5104829;28;20038;-69
2022/06/20 03:01:53;;;;;;;1.48;0.88;;;12.30;99.90;;;;;;5106088;28;20841;-68
2022/06/20 03:04:21;;;;;;;3.08;1.23;;;12.30;99.90;;;;;;5105873;28;20598;-69
2022/06/20 03:06:52;;;;;;;3.70;0.90;;;12.30;99.90;;;;;;5105954;28;20049;-68
2022/06/20 03:09:28;;;;;;;1.77;1.10;;;12.30;99.90;;;;;;5105972;28;20080;-69
2022/06/20 03:11:55;;;;;;;1.20;0.80;;;12.30;99.90;;;;;;5106345;28;20085;-68
2022/06/20 03:14:29;;;;;;;1.45;0.90;;;12.30;99.90;;;;;;5111250;28;20028;-67
2022/06/20 03:16:57;;;;;;;3.25;0.60;;;12.30;99.90;;;;;;5126785;28;20026;-66
2022/06/20 03:19:31;;;;;;;5.40;1.75;;;12.30;99.90;;;;;;5126377;28;20364;-68
2022/06/20 03:22:02;;;;;;;4.95;1.17;;;12.30;99.90;;;;;;5125841;28;20047;-67
2022/06/20 03:24:30;;;;;;;6.45;1.13;;;12.40;99.90;;;;;;5126435;28;20536;-68
2022/06/20 03:26:58;;;;;;;3.95;1.35;;;12.40;99.90;;;;;;5125720;28;20023;-68
2022/06/20 03:29:25;;;;;;;2.65;1.15;;;12.40;99.90;;;;;;5125671;28;20043;-68
2022/06/20 03:31:52;;;;;;;1.65;1.13;;;12.40;99.90;;;;;;5126457;28;20062;-66
2022/06/20 03:34:17;;;;;;;4.30;1.23;;;12.30;99.90;;;;;;5125878;28;20111;-67
2022/06/20 03:36:47;;;;;;;6.47;1.40;;;12.40;99.90;;;;;;5126162;28;20475;-67
2022/06/20 03:39:13;;;;;;;13.85;1.85;;;12.40;99.90;;;;;;5125792;28;20024;-66
2022/06/20 03:41:40;;;;;;;1.58;0.90;;;12.40;99.90;;;;;;5114439;28;20035;-67
2022/06/20 03:44:19;;;;;;;4.65;1.52;;;12.40;99.90;;;;;;5110354;28;20024;-66
2022/06/20 03:46:53;;;;;;;3.67;0.77;;;12.40;99.90;;;;;;5108680;28;20019;-65
2022/06/20 03:49:26;;;;;;;1.30;0.90;;;12.40;99.90;;;;;;5126078;28;20126;-68
2022/06/20 03:52:02;;;;;;;2.40;0.80;;;12.40;99.90;;;;;;5125929;28;20066;-70
2022/06/20 03:54:38;;;;;;;3.10;1.30;;;12.40;99.90;;;;;;5125352;28;20047;-68
2022/06/20 03:57:12;;;;;;;1.67;0.82;;;12.40;99.90;;;;;;5125297;28;20062;-66
2022/06/20 03:59:48;;;;;;;1.13;0.70;;;12.50;99.90;;;;;;5125622;28;20031;-67
2022/06/20 04:02:34;;;;;;;2.78;1.05;;;12.50;99.90;;;;;;5125188;28;20061;-66
2022/06/20 04:05:27;;;;;;;4.45;1.15;;;12.50;99.90;;;;;;5125407;28;20027;-69
2022/06/20 04:08:09;;;;;;;1.77;1.20;;;12.50;99.90;;;;;;5125683;28;20055;-67
2022/06/20 04:13:54;;;;;;;1.08;0.90;;;12.50;99.90;;;;;;5125369;28;20030;-66
2022/06/20 04:16:32;;;;;;;1.45;1.17;;;12.60;99.90;;;;;;5104948;28;20031;-67
2022/06/20 04:19:13;;;;;;;9.63;1.55;;;12.70;99.90;;;;;;5105151;28;20024;-68
2022/06/20 04:21:46;;;;;;;3.00;1.08;;;12.70;99.90;;;;;;5104440;28;20032;-66
2022/06/20 04:24:32;;;;;;;2.22;1.05;;;12.70;99.90;;;;;;5105117;28;20069;-66
2022/06/20 04:27:11;;;;;;;2.40;0.75;;;12.80;99.90;;;;;;5104759;28;20032;-67
2022/06/20 04:29:46;;;;;;;6.28;1.42;;;12.80;99.90;;;;;;5104272;28;20047;-67
2022/06/20 04:32:20;;;;;;;5.60;1.45;;;12.80;99.90;;;;;;5104859;28;20135;-67
2022/06/20 04:35:04;;;;;;;3.20;1.60;;;12.90;99.90;;;;;;5104471;28;20035;-67
2022/06/20 04:37:35;;;;;;;2.05;1.10;;;12.90;99.90;;;;;;5104548;28;20028;-68
2022/06/20 04:40:24;;;;;;;8.55;1.13;;;13.00;99.90;;;;;;5104754;28;20021;-66
2022/06/20 04:42:53;;;;;;;2.13;1.00;;;13.00;99.90;;;;;;5104233;28;20051;-68
2022/06/20 04:45:28;;;;;;;5.50;1.17;;;13.10;99.90;;;;;;5110257;28;20035;-69
2022/06/20 04:48:17;;;;;;;3.00;1.25;;;13.10;99.90;;;;;;5105811;28;20035;-68
2022/06/20 04:50:49;;;;;;;1.33;0.82;;;13.20;99.90;;;;;;5106259;28;20047;-69
2022/06/20 04:53:23;;;;;;;1.73;0.75;;;13.20;99.90;;;;;;5113480;28;20016;-67
2022/06/20 04:55:58;;;;;;;3.65;0.82;;;13.20;99.90;;;;;;5105914;28;20028;-67
2022/06/20 04:58:34;;;;;;;3.55;1.45;;;13.20;99.90;;;;;;5112285;28;20032;-68
2022/06/20 05:01:02;;;;;;;3.22;1.13;;;13.20;99.90;;;;;;5112028;28;20034;-68
2022/06/20 05:03:31;;;;;;;3.45;1.25;;;13.20;99.90;;;;;;5109747;28;20025;-67
2022/06/20 05:05:59;;;;;;;7.25;1.73;;;13.10;99.90;;;;;;5112134;28;20028;-69
2022/06/20 05:08:31;;;;;;;5.25;1.10;;;13.10;99.90;;;;;;5111642;28;20031;-69
2022/06/20 05:11:23;;;;;;;3.13;1.13;;;13.10;99.90;;;;;;5125356;28;20473;-69
2022/06/20 05:13:55;;;;;;;3.25;1.17;;;13.00;99.90;;;;;;5118910;28;20019;-69
2022/06/20 05:16:27;;;;;;;2.50;1.20;;;13.00;99.90;;;;;;5114069;28;20032;-70
2022/06/20 05:18:57;;;;;;;7.28;1.20;;;13.00;99.90;;;;;;5119889;28;20026;-70
2022/06/20 05:21:38;;;;;;;2.25;1.27;;;13.00;99.90;;;;;;5116411;28;20048;-70
2022/06/20 05:24:14;;;;;;;4.40;1.60;;;13.00;99.90;;;;;;5108071;28;20023;-69
2022/06/20 05:26:43;;;;;;;2.35;1.10;;;13.10;99.90;;;;;;5114111;28;20024;-68
2022/06/20 05:29:22;;;;;;;4.50;1.15;;;13.00;99.90;;;;;;5127920;28;20472;-68
2022/06/20 05:31:52;;;;;;;1.52;1.10;;;13.00;99.90;;;;;;5124891;28;20613;-67
2022/06/20 05:34:23;;;;;;;2.95;1.35;;;13.00;99.90;;;;;;5112282;28;20012;-68
2022/06/20 05:36:52;;;;;;;1.80;0.80;;;13.10;99.90;;;;;;5106342;28;20095;-68
2022/06/20 05:39:57;;;;;;;1.35;1.08;;;13.10;99.90;;;;;;5116391;28;20036;-69
2022/06/20 05:42:23;;;;;;;;;;;13.10;99.90;;;;;;5117403;28;20040;-69
2022/06/20 05:44:48;;;;;;;10.07;1.67;;;13.20;99.90;;;;;;5108954;28;19908;-69
2022/06/20 05:47:42;;;;;;;2.03;1.10;;;13.20;99.90;;;;;;5107657;28;20028;-68
2022/06/20 05:50:23;;;;;;;1.83;1.30;;;13.30;99.90;;;;;;5105974;28;20036;-68
2022/06/20 05:52:51;;;;;;;3.78;1.20;;;13.30;99.90;;;;;;5107312;28;20032;-66
2022/06/20 05:55:24;;;;;;;1.65;1.23;;;13.40;99.90;;;;;;5118944;28;20027;-68
2022/06/20 05:57:50;;;;;;;4.63;1.40;;;13.40;99.90;;;;;;5108387;28;20035;-67
2022/06/20 06:00:21;;;;;;;5.68;1.25;;;13.40;99.90;;;;;;5125341;28;20074;-68
2022/06/20 06:03:02;;;;;;;1.25;0.88;;;13.40;99.90;;;;;;5119369;28;20104;-67
2022/06/20 06:05:47;;;;;;;2.22;1.13;;;13.40;99.90;;;;;;5108031;28;20024;-69
2022/06/20 06:08:53;;;;;;;4.32;1.00;;;13.50;99.90;;;;;;5108718;28;20115;-68
2022/06/20 06:11:27;;;;;;;1.55;1.00;;;13.60;99.90;;;;;;5113160;28;20044;-68
2022/06/20 06:14:10;;;;;;;1.30;0.70;;;13.60;99.90;;;;;;5112465;28;20031;-69
2022/06/20 06:16:48;;;;;;;3.38;1.35;;;13.60;99.90;;;;;;5113944;28;20032;-68
2022/06/20 06:19:30;;;;;;;2.17;1.30;;;13.60;99.90;;;;;;5106317;28;20032;-69
2022/06/20 06:22:01;;;;;;;3.67;1.17;;;13.60;99.90;;;;;;5106662;28;20066;-68
2022/06/20 06:24:29;;;;;;;4.25;1.60;;;13.60;99.90;;;;;;5106752;28;20106;-68
2022/06/20 06:26:58;;;;;;;1.63;0.82;;;13.60;99.90;;;;;;5105137;28;20039;-70
2022/06/20 06:29:41;;;;;;;2.88;1.00;;;13.70;99.90;;;;;;5107443;28;20488;-71
2022/06/20 06:32:15;;;;;;;2.78;1.42;;;13.80;99.90;;;;;;5116414;28;20043;-68
2022/06/20 06:34:55;;;;;;;2.10;1.30;;;13.80;99.90;;;;;;5119625;28;20034;-67
2022/06/20 06:37:34;;;;;;;1.77;0.93;;;13.90;99.90;;;;;;5127524;28;20124;-68
2022/06/20 06:40:10;;;;;;;3.42;1.00;;;14.00;99.90;;;;;;5120048;28;20689;-70
2022/06/20 06:42:39;;;;;;;0.80;0.57;;;14.10;99.90;;;;;;5106699;28;20028;-68
2022/06/20 06:45:06;;;;;;;1.33;0.85;;;14.10;99.90;;;;;;5106599;28;20032;-67
2022/06/20 06:47:59;;;;;;;0.65;0.50;;;14.30;99.90;;;;;;5105240;28;20063;-69
2022/06/20 06:50:36;;;;;;;1.10;0.82;;;14.40;99.90;;;;;;5102732;28;20093;-69
2022/06/20 06:53:11;;;;;;;1.92;0.85;;;14.40;99.90;;;;;;5112925;28;20051;-69
2022/06/20 06:55:41;;;;;;;0.95;0.60;;;14.50;99.90;;;;;;5107375;28;20046;-68
2022/06/20 06:58:12;;;;;;;1.23;0.70;;;14.50;99.90;;;;;;5107317;28;20027;-70
2022/06/20 07:00:43;;;;;;;2.10;0.88;;;14.60;99.90;;;;;;5106670;28;20407;-69
2022/06/20 07:03:28;;;;;;;2.03;0.82;;;14.70;99.90;;;;;;5115716;28;20027;-72
2022/06/20 07:06:10;;;;;;;;;;;14.80;99.90;;;;;;5118703;28;20032;-71
2022/06/20 07:08:44;;;;;;;2.22;0.90;;;14.90;99.90;;;;;;5105908;28;20453;-67
2022/06/20 07:11:22;;;;;;;2.00;0.80;;;14.90;99.90;;;;;;5106131;28;20040;-68
2022/06/20 07:13:58;;;;;;;1.30;0.88;;;15.00;99.90;;;;;;5115600;28;20059;-68
2022/06/20 07:16:35;;;;;;;2.90;0.90;;;15.10;99.90;;;;;;5105859;28;20036;-70
2022/06/20 07:19:05;;;;;;;2.10;0.70;;;15.30;99.90;;;;;;5105922;28;20052;-68
2022/06/20 07:21:32;;;;;;;2.42;1.00;;;15.40;99.90;;;;;;5108722;28;20028;-67
2022/06/20 07:24:17;;;;;;;1.75;0.60;;;15.50;99.90;;;;;;5115250;28;20032;-67
2022/06/20 07:27:31;;;;;;;0.75;0.60;;;15.50;99.90;;;;;;5105205;28;20030;-68
2022/06/20 07:30:13;;;;;;;1.50;1.05;;;15.50;99.90;;;;;;5070537;28;20056;-69
2022/06/20 07:32:46;;;;;;;2.13;0.90;;;15.60;99.90;;;;;;5106684;28;20081;-67
2022/06/20 07:35:17;;;;;;;4.30;0.90;;;15.70;99.90;;;;;;5112691;28;20039;-68
2022/06/20 07:37:51;;;;;;;1.33;1.00;;;15.70;99.90;;;;;;5107260;28;20061;-69
2022/06/20 07:40:19;;;;;;;1.60;0.95;;;15.60;99.90;;;;;;5102397;28;20036;-69
2022/06/20 07:42:52;;;;;;;2.67;1.10;;;15.70;99.90;;;;;;5102237;28;20039;-68
2022/06/20 07:45:23;;;;;;;0.52;0.43;;;15.80;99.90;;;;;;5103750;28;20043;-69
2022/06/20 07:47:57;;;;;;;1.35;0.70;;;15.90;99.90;;;;;;5107219;28;20502;-68
2022/06/20 07:50:33;;;;;;;1.05;0.60;;;16.00;99.90;;;;;;5114652;28;20031;-67
2022/06/20 07:53:14;;;;;;;1.08;0.80;;;16.10;99.90;;;;;;5112146;28;20032;-70
2022/06/20 07:55:46;;;;;;;2.63;0.95;;;16.30;99.90;;;;;;5108796;28;20042;-68
2022/06/20 07:58:40;;;;;;;1.80;0.63;;;16.50;99.90;;;;;;5107706;28;20020;-67
2022/06/20 08:01:39;;;;;;;0.52;0.47;;;16.50;99.90;;;;;;5107620;28;20055;-68
2022/06/20 08:04:38;;;;;;;1.55;0.77;;;16.50;99.90;;;;;;5111555;27;20024;-69
2022/06/20 08:07:20;;;;;;;4.28;0.85;;;16.60;99.90;;;;;;5109106;28;20027;-70
2022/06/20 08:09:51;;;;;;;2.55;0.95;;;16.50;99.90;;;;;;5115852;28;20032;-68
2022/06/20 08:12:44;;;;;;;2.90;1.02;;;16.40;99.90;;;;;;5113943;28;20031;-70
2022/06/20 08:15:27;;;;;;;2.00;1.25;;;16.30;99.90;;;;;;5105109;28;20036;-68
2022/06/20 08:17:53;;;;;;;2.20;1.00;;;16.30;99.90;;;;;;5103695;28;20032;-69
2022/06/20 08:20:21;;;;;;;1.10;0.60;;;16.30;99.90;;;;;;5104850;28;20055;-68
2022/06/20 08:23:07;;;;;;;1.98;0.63;;;16.30;99.90;;;;;;5103947;28;20024;-71
2022/06/20 08:25:37;;;;;;;1.95;0.63;;;16.40;99.90;;;;;;5108864;28;20475;-68
2022/06/20 08:28:08;;;;;;;1.25;0.60;;;16.50;99.90;;;;;;5107216;28;20024;-70
2022/06/20 08:31:11;;;;;;;0.93;0.63;;;16.60;99.90;;;;;;5118198;28;20057;-69
2022/06/20 08:33:57;;;;;;;5.07;0.88;;;16.80;99.90;;;;;;5103856;28;20032;-68
2022/06/20 08:36:37;;;;;;;1.30;1.10;;;16.80;99.90;;;;;;5104183;28;20032;-69
2022/06/20 08:39:09;;;;;;;2.13;1.02;;;16.80;99.90;;;;;;5104853;28;20023;-70
2022/06/20 08:42:13;;;;;;;2.22;1.15;;;16.80;99.90;;;;;;5112548;28;20040;-67
2022/06/20 08:44:47;;;;;;;0.70;0.57;;;16.70;99.90;;;;;;5095503;28;20099;-66
2022/06/20 08:47:44;;;;;;;1.08;0.55;;;16.70;99.90;;;;;;5108844;28;20456;-68
2022/06/20 08:50:47;;;;;;;3.17;1.08;;;16.60;99.90;;;;;;5110569;28;20547;-66
2022/06/20 08:53:48;;;;;;;5.20;1.58;;;16.60;99.90;;;;;;5110553;28;20031;-67
2022/06/20 08:56:54;;;;;;;3.65;0.88;;;16.50;99.90;;;;;;5104038;28;20020;-68
2022/06/20 09:00:03;;;;;;;7.32;1.00;;;16.60;99.90;;;;;;5094433;28;20032;-69
2022/06/20 09:02:43;;;;;;;5.00;0.90;;;16.90;99.90;;;;;;5124560;28;20028;-69
2022/06/20 09:05:31;;;;;;;2.67;0.82;;;17.10;99.90;;;;;;5106732;28;20091;-70
2022/06/20 09:08:08;;;;;;;4.10;0.90;;;17.40;99.90;;;;;;5107412;28;20023;-70
2022/06/20 09:10:48;;;;;;;5.55;1.10;;;17.60;99.90;;;;;;5114015;28;20039;-69
2022/06/20 09:13:14;;;;;;;3.13;1.10;;;17.70;99.90;;;;;;5118638;28;20057;-69
2022/06/20 09:16:07;;;;;;;6.85;1.42;;;17.80;99.90;;;;;;5124315;28;20027;-69
2022/06/20 09:18:55;;;;;;;4.05;1.20;;;17.80;99.90;;;;;;5117597;28;20028;-71
2022/06/20 09:21:33;;;;;;;4.15;1.05;;;17.70;99.90;;;;;;5109471;28;20034;-67
2022/06/20 09:24:14;;;;;;;5.13;1.20;;;17.70;99.90;;;;;;5111860;28;20376;-71
2022/06/20 09:27:01;;;;;;;0.57;0.50;;;17.80;99.90;;;;;;5112602;28;20020;-71
2022/06/20 09:30:15;;;;;;;1.90;0.65;;;18.00;99.90;;;;;;5115568;28;20038;-73
2022/06/20 09:33:02;;;;;;;1.63;1.10;;;18.20;99.90;;;;;;5105282;28;20055;-67
2022/06/20 09:36:09;;;;;;;3.03;0.93;;;18.40;99.90;;;;;;5104926;28;20035;-71
2022/06/20 09:38:53;;;;;;;3.72;1.05;;;18.30;99.90;;;;;;5104199;28;20153;-70
2022/06/20 09:41:22;;;;;;;1.65;1.10;;;18.00;99.90;;;;;;5103815;28;20032;-67
2022/06/20 09:44:15;;;;;;;0.43;0.43;;;17.80;99.90;;;;;;5103959;28;20083;-69
2022/06/20 09:47:05;;;;;;;0.70;0.60;;;17.40;99.90;;;;;;5103886;28;20042;-69
2022/06/20 09:50:02;;;;;;;2.42;0.75;;;17.10;99.90;;;;;;5106250;28;20024;-70
2022/06/20 09:52:55;;;;;;;1.15;0.40;;;16.80;99.90;;;;;;5112407;28;20040;-70
2022/06/20 09:55:42;;;;;;;1.08;0.57;;;16.60;99.90;;;;;;5113509;28;20051;-70
2022/06/20 09:58:15;;;;;;;1.08;0.75;;;16.50;99.90;;;;;;5118634;28;20498;-68
2022/06/20 10:00:58;;;;;;;1.23;0.65;;;16.40;99.90;;;;;;5110259;28;20387;-69
2022/06/20 10:03:54;;;;;;;0.85;0.52;;;16.40;99.90;;;;;;5107596;28;20043;-70
2022/06/20 10:06:35;;;;;;;1.77;0.90;;;16.50;99.90;;;;;;5112116;28;20059;-69
2022/06/20 10:09:29;;;;;;;0.98;0.68;;;16.70;99.90;;;;;;5105790;28;20036;-70
2022/06/20 10:12:19;;;;;;;0.55;0.50;;;17.00;99.90;;;;;;5109490;28;20429;-69
2022/06/20 10:15:15;;;;;;;3.55;0.88;;;17.40;99.90;;;;;;5119656;28;20031;-68
2022/06/20 10:18:11;;;;;;;0.80;0.68;;;17.70;99.90;;;;;;5125330;27;20026;-69
2022/06/20 10:21:08;;;;;;;0.75;0.63;;;18.00;99.90;;;;;;5126611;28;20036;-69
2022/06/20 10:23:49;;;;;;;2.33;0.85;;;18.10;99.90;;;;;;5127570;28;20023;-71
2022/06/20 10:26:48;;;;;;;0.90;0.63;;;18.30;99.90;;;;;;5122123;28;20028;-69
2022/06/20 10:29:14;;;;;;;2.75;1.05;;;18.50;99.90;;;;;;5107890;28;20040;-69
2022/06/20 10:31:43;;;;;;;2.25;0.90;;;18.50;99.90;;;;;;5110149;28;20038;-69
2022/06/20 10:34:21;;;;;;;1.85;1.00;;;18.50;99.90;;;;;;5125551;28;20472;-69
2022/06/20 10:36:57;;;;;;;0.70;0.68;;;18.50;99.90;;;;;;5114788;28;20161;-67
2022/06/20 10:39:51;;;;;;;1.27;0.80;;;18.70;99.90;;;;;;5124743;28;20029;-67
2022/06/20 10:42:33;;;;;;;4.97;1.20;;;18.70;99.90;;;;;;5124441;28;20059;-69
2022/06/20 10:45:26;;;;;;;0.77;0.68;;;18.50;99.90;;;;;;5123903;28;20031;-72
2022/06/20 10:48:13;;;;;;;2.78;1.35;;;18.30;99.90;;;;;;5122314;28;20035;-70
2022/06/20 10:51:24;;;;;;;1.50;0.75;;;18.20;99.90;;;;;;5122988;28;20032;-68
2022/06/20 10:54:04;;;;;;;1.58;0.77;;;17.90;99.90;;;;;;5121422;28;20041;-70
2022/06/20 10:56:51;;;;;;;3.25;0.93;;;17.70;99.90;;;;;;5123949;28;20020;-70
2022/06/20 11:00:06;;;;;;;1.15;0.90;;;17.80;99.90;;;;;;5123278;28;20132;-68
2022/06/20 11:02:47;;;;;;;3.85;0.80;;;18.00;99.90;;;;;;5111398;28;20059;-70
2022/06/20 11:05:41;;;;;;;3.35;0.65;;;18.20;99.90;;;;;;5123252;28;20033;-68
2022/06/20 11:08:12;;;;;;;2.05;0.88;;;18.50;99.90;;;;;;5123770;28;20023;-71
2022/06/20 11:10:50;;;;;;;3.95;0.75;;;18.80;99.90;;;;;;5123956;28;20028;-70
2022/06/20 11:13:31;;;;;;;2.40;0.60;;;19.10;99.90;;;;;;5121265;28;20072;-69
2022/06/20 11:16:23;;;;;;;0.90;0.57;;;19.30;99.90;;;;;;5124240;28;20069;-70
2022/06/20 11:19:03;;;;;;;0.63;0.43;;;19.40;99.90;;;;;;5123465;28;20032;-68
2022/06/20 11:21:43;;;;;;;1.40;0.65;;;19.40;99.90;;;;;;5123597;28;20020;-67
2022/06/20 11:24:22;;;;;;;2.00;0.85;;;19.20;99.90;;;;;;5123876;28;20024;-68
2022/06/20 11:27:25;;;;;;;1.88;0.70;;;18.80;99.90;;;;;;5123452;28;20035;-70
2022/06/20 11:30:18;;;;;;;2.30;0.70;;;18.50;99.90;;;;;;5118835;28;20048;-71
2022/06/20 11:33:18;;;;;;;0.22;0.20;;;18.20;99.90;;;;;;5123032;28;20046;-68
2022/06/20 11:35:56;;;;;;;5.88;0.57;;;17.90;99.90;;;;;;5122187;28;20076;-69
2022/06/20 11:38:36;;;;;;;2.22;0.60;;;17.70;99.90;;;;;;5123503;28;20019;-70
2022/06/20 11:41:21;;;;;;;1.70;0.63;;;17.60;99.90;;;;;;5123345;28;20032;-70
2022/06/20 11:44:20;;;;;;;1.20;0.55;;;17.60;99.90;;;;;;5123450;28;20027;-70
2022/06/20 11:47:14;;;;;;;1.55;0.75;;;17.70;99.90;;;;;;5122471;28;20024;-72
2022/06/20 11:50:13;;;;;;;0.45;0.30;;;17.90;99.90;;;;;;5122453;28;20047;-71
2022/06/20 11:52:56;;;;;;;1.70;0.85;;;18.30;99.90;;;;;;5122101;28;20043;-70
2022/06/20 11:55:22;;;;;;;6.40;0.80;;;18.80;99.90;;;;;;5122666;28;20020;-67
2022/06/20 11:58:09;;;;;;;0.57;0.35;;;18.70;99.90;;;;;;5123612;28;20012;-71
2022/06/20 12:01:08;;;;;;;0.65;0.57;;;18.50;99.90;;;;;;5122750;28;20020;-69
2022/06/20 12:03:42;;;;;;;2.60;0.65;;;18.20;99.90;;;;;;5122733;28;20032;-70
2022/06/20 12:06:21;;;;;;;0.52;0.50;;;18.00;99.90;;;;;;5123292;28;20023;-68
2022/06/20 12:09:16;;;;;;;1.70;0.57;;;17.80;99.90;;;;;;5122627;28;20108;-69
2022/06/20 12:12:10;;;;;;;0.40;0.40;;;18.00;99.90;;;;;;5122867;28;20027;-70
2022/06/20 12:14:43;;;;;;;2.60;0.40;;;18.60;99.90;;;;;;5122083;28;20411;-68
2022/06/20 12:17:15;;;;;;;0.88;0.55;;;19.10;99.90;;;;;;5122201;28;20019;-69
2022/06/20 12:25:47;;;;;;;1.50;0.57;;;18.90;99.90;;;;;;5118637;28;20034;-69
2022/06/20 12:28:31;;;;;;;1.30;0.60;;;18.50;99.90;;;;;;5116136;28;20032;-68
2022/06/20 12:31:27;;;;;;;1.77;0.60;;;18.20;99.90;;;;;;5120191;28;20075;-71
2022/06/20 12:34:04;;;;;;;0.98;0.40;;;18.00;99.90;;;;;;5116710;28;20031;-72
2022/06/20 12:36:48;;;;;;;2.92;0.75;;;18.00;99.90;;;;;;5119041;28;20047;-69
2022/06/20 12:39:23;;;;;;;0.75;0.65;;;18.20;99.90;;;;;;5121259;28;20027;-69
2022/06/20 12:41:56;;;;;;;0.80;0.32;;;18.40;99.90;;;;;;5121303;28;20031;-69
2022/06/20 12:44:29;;;;;;;1.05;0.57;;;18.70;99.90;;;;;;5120971;28;20020;-67
2022/06/20 12:47:14;;;;;;;0.50;0.50;;;19.30;99.90;;;;;;5121112;28;20019;-71
2022/06/20 12:49:52;;;;;;;1.42;0.85;;;19.40;99.90;;;;;;5120921;28;20055;-69
2022/06/20 12:52:38;;;;;;;0.60;0.55;;;19.70;99.90;;;;;;5121658;28;20040;-69
2022/06/20 12:55:15;;;;;;;0.75;0.52;;;20.00;99.90;;;;;;5121105;28;20034;-70
2022/06/20 12:58:18;;;;;;;3.10;0.85;;;20.40;99.90;;;;;;5121269;28;20031;-69
2022/06/20 13:00:55;;;;;;;4.95;0.60;;;20.50;99.90;;;;;;5121955;28;20030;-73
2022/06/20 13:03:42;;;;;;;6.03;0.80;;;20.80;99.90;;;;;;5121797;28;20034;-66
2022/06/20 13:06:35;;;;;;;0.60;0.55;;;21.00;99.90;;;;;;5121530;28;20600;-68
2022/06/20 13:09:23;;;;;;;0.60;0.38;;;21.30;99.90;;;;;;5122009;28;20024;-71
2022/06/20 13:12:27;;;;;;;1.00;0.57;;;21.20;99.90;;;;;;5120716;28;20035;-69
2022/06/20 13:15:18;;;;;;;0.55;0.47;;;20.70;99.90;;;;;;5120514;28;20040;-71
2022/06/20 13:17:57;;;;;;;1.63;0.52;;;20.30;99.90;;;;;;5122159;28;20500;-68
2022/06/20 13:20:47;;;;;;;2.92;0.50;;;20.60;99.90;;;;;;5120598;28;20043;-71
2022/06/20 13:23:21;;;;;;;0.60;0.40;;;21.00;99.90;;;;;;5121438;28;20035;-72
2022/06/20 13:26:01;;;;;;;0.80;0.52;;;20.90;99.90;;;;;;5118500;28;20028;-69
2022/06/20 13:28:58;;;;;;;1.85;0.60;;;20.60;99.90;;;;;;5109206;28;20038;-70
2022/06/20 13:31:38;;;;;;;1.00;0.50;;;20.80;99.90;;;;;;5114263;28;20052;-69
2022/06/20 13:34:33;;;;;;;0.38;0.38;;;21.20;99.90;;;;;;5125225;28;20061;-72
2022/06/20 13:37:20;;;;;;;2.50;0.73;;;21.50;99.90;;;;;;5121700;28;20062;-71
2022/06/20 13:39:51;;;;;;;1.02;0.55;;;21.40;99.90;;;;;;5124662;28;20440;-68
2022/06/20 13:42:36;;;;;;;2.67;0.98;;;21.30;99.90;;;;;;5124635;27;20076;-70
2022/06/20 13:45:23;;;;;;;1.20;0.57;;;21.00;99.90;;;;;;5125862;28;20023;-71
2022/06/20 13:48:15;;;;;;;1.60;0.45;;;20.70;99.90;;;;;;5124278;28;20027;-68
2022/06/20 13:51:07;;;;;;;9.10;1.20;;;20.50;99.90;;;;;;5125795;28;20028;-68
2022/06/20 13:54:05;;;;;;;3.63;0.90;;;20.00;99.90;;;;;;5125608;28;20023;-71
2022/06/20 13:56:40;;;;;;;2.08;1.02;;;19.50;99.90;;;;;;5124920;28;20123;-70
2022/06/20 13:59:40;;;;;;;0.75;0.60;;;19.70;99.90;;;;;;5124280;28;20023;-71
2022/06/20 14:02:28;;;;;;;1.65;0.75;;;20.00;99.90;;;;;;5118454;28;20059;-72